Time;durP1;ratioP1;P1;durP2;ratioP2;P2;SDS_P1;SDS_P2;PMS_P1;PMS_P2;Temp;Humidity;BMP_temperature;BMP_pressure;BME280_temperature;BME280_humidity;BME280_pressure;Samples;Min_cycle;Max_cycle;Signal;HPM_P1;HPM_P2
2024/03/25 00:01:07;;;;;;;14.32;6.05;;;6.60;99.90;;;;;;5003776;28;20046;-68
2024/03/25 00:03:32;;;;;;;16.95;6.15;;;6.50;99.90;;;;;;5007279;28;20515;-67
2024/03/25 00:05:58;;;;;;;20.45;6.80;;;6.50;99.90;;;;;;4998534;28;20045;-68
2024/03/25 00:08:24;;;;;;;21.25;7.35;;;6.50;99.90;;;;;;4983693;28;20062;-68
2024/03/25 00:10:50;;;;;;;22.02;7.80;;;6.40;99.90;;;;;;5023538;28;20394;-67
2024/03/25 00:13:16;;;;;;;21.27;7.20;;;6.40;99.90;;;;;;5005964;28;20064;-68
2024/03/25 00:15:42;;;;;;;15.93;6.80;;;6.40;99.90;;;;;;5008996;28;20046;-68
2024/03/25 00:18:08;;;;;;;24.00;7.80;;;6.30;99.90;;;;;;4988929;28;20528;-68
2024/03/25 00:20:34;;;;;;;21.17;6.72;;;6.40;99.90;;;;;;5022146;28;20061;-69
2024/03/25 00:23:00;;;;;;;20.52;7.63;;;6.40;99.90;;;;;;5020245;28;20056;-68
2024/03/25 00:25:26;;;;;;;23.85;7.45;;;6.50;99.90;;;;;;5009036;28;20054;-68
2024/03/25 00:27:52;;;;;;;17.05;6.53;;;6.50;99.90;;;;;;5006074;28;20049;-69
2024/03/25 00:30:18;;;;;;;17.80;5.32;;;6.40;99.90;;;;;;5005907;28;20503;-68
2024/03/25 00:32:43;;;;;;;15.35;6.35;;;6.40;99.90;;;;;;5003712;28;20046;-68
2024/03/25 00:35:09;;;;;;;16.63;5.70;;;6.50;99.90;;;;;;4991563;28;20057;-69
2024/03/25 00:37:35;;;;;;;17.48;6.85;;;6.40;99.90;;;;;;5004438;28;20061;-68
2024/03/25 00:40:01;;;;;;;14.20;5.65;;;6.30;99.90;;;;;;5006720;28;20412;-68
2024/03/25 00:42:27;;;;;;;12.25;4.90;;;6.30;99.90;;;;;;5003710;28;20516;-68
2024/03/25 00:44:53;;;;;;;13.90;4.82;;;6.30;99.90;;;;;;5006035;28;20046;-68
2024/03/25 00:47:19;;;;;;;9.40;4.43;;;6.40;99.90;;;;;;5000853;28;20046;-68
2024/03/25 00:49:45;;;;;;;10.30;3.88;;;6.30;99.90;;;;;;5006278;28;20057;-68
2024/03/25 00:52:11;;;;;;;11.45;4.38;;;6.40;99.90;;;;;;5004998;28;20077;-67
2024/03/25 00:54:37;;;;;;;15.30;3.83;;;6.40;99.90;;;;;;5007630;28;20050;-67
2024/03/25 00:57:03;;;;;;;12.32;4.03;;;6.50;99.90;;;;;;5005483;28;20128;-68
2024/03/25 00:59:29;;;;;;;8.98;4.32;;;6.40;99.90;;;;;;4973724;28;20053;-68
2024/03/25 01:01:55;;;;;;;12.18;3.10;;;6.50;99.90;;;;;;5004589;28;20077;-68
2024/03/25 01:04:21;;;;;;;7.47;4.05;;;6.50;99.90;;;;;;5002994;28;20111;-68
2024/03/25 01:06:46;;;;;;;9.15;4.00;;;6.50;99.90;;;;;;5005076;28;20521;-67
2024/03/25 01:09:12;;;;;;;9.07;3.25;;;6.60;99.90;;;;;;5004591;28;20076;-68
2024/03/25 01:11:38;;;;;;;13.25;3.33;;;6.60;99.90;;;;;;5005651;28;20164;-67
2024/03/25 01:14:04;;;;;;;10.25;3.13;;;6.60;99.90;;;;;;5003290;28;20509;-68
2024/03/25 01:16:30;;;;;;;8.43;3.72;;;6.60;99.90;;;;;;4997088;28;20052;-68
2024/03/25 01:18:56;;;;;;;13.90;3.78;;;6.60;99.90;;;;;;5005958;28;20111;-67
2024/03/25 01:21:22;;;;;;;11.43;3.35;;;6.60;99.90;;;;;;5004386;28;20058;-68
2024/03/25 01:23:48;;;;;;;8.38;3.17;;;6.60;99.90;;;;;;5002488;28;20133;-68
2024/03/25 01:26:14;;;;;;;7.65;2.88;;;6.70;99.90;;;;;;5004612;28;20089;-67
2024/03/25 01:28:39;;;;;;;9.95;3.28;;;6.70;99.90;;;;;;5017939;28;20398;-67
2024/03/25 01:31:05;;;;;;;15.23;3.15;;;6.70;99.90;;;;;;5001956;28;20433;-68
2024/03/25 01:33:31;;;;;;;11.07;3.63;;;6.80;99.90;;;;;;5024994;28;20072;-66
2024/03/25 01:35:57;;;;;;;9.70;3.03;;;6.80;99.90;;;;;;5008693;28;20355;-67
2024/03/25 01:38:23;;;;;;;8.10;3.40;;;6.90;99.90;;;;;;4996348;28;20046;-67
2024/03/25 01:40:49;;;;;;;10.43;3.55;;;6.90;99.90;;;;;;5009894;28;20049;-68
2024/03/25 01:43:15;;;;;;;7.90;3.00;;;6.80;99.90;;;;;;5009085;28;20421;-68
2024/03/25 01:45:41;;;;;;;9.10;3.67;;;6.80;99.90;;;;;;5008344;28;20489;-68
2024/03/25 01:48:07;;;;;;;6.45;2.58;;;6.80;99.90;;;;;;4993024;28;20144;-67
2024/03/25 01:50:35;;;;;;;14.45;3.03;;;6.70;99.90;;;;;;5004977;28;20213;-68
2024/03/25 01:53:02;;;;;;;10.93;2.78;;;6.70;99.90;;;;;;5007444;28;20046;-68
2024/03/25 01:55:29;;;;;;;10.02;3.83;;;6.60;99.90;;;;;;4989594;28;20065;-68
2024/03/25 01:57:55;;;;;;;7.22;2.65;;;6.60;99.90;;;;;;5006162;28;20073;-68
2024/03/25 02:00:21;;;;;;;9.45;3.10;;;6.60;99.90;;;;;;5003140;28;20050;-68
2024/03/25 02:02:47;;;;;;;11.77;3.22;;;6.60;99.90;;;;;;5005931;28;20409;-68
2024/03/25 02:05:17;;;;;;;10.32;2.80;;;6.50;99.90;;;;;;5005543;28;20050;-68
2024/03/25 02:07:43;;;;;;;7.90;3.10;;;6.50;99.90;;;;;;5003900;28;20528;-67
2024/03/25 02:10:15;;;;;;;7.40;2.25;;;6.50;99.90;;;;;;4998381;28;20050;-68
2024/03/25 02:12:45;;;;;;;12.02;3.65;;;6.40;99.90;;;;;;5005095;28;20345;-67
2024/03/25 02:15:12;;;;;;;14.07;2.30;;;6.30;99.90;;;;;;5005008;28;20068;-69
2024/03/25 02:17:38;;;;;;;8.88;2.80;;;6.30;99.90;;;;;;4992998;28;20061;-67
2024/03/25 02:20:05;;;;;;;10.93;2.80;;;6.40;99.90;;;;;;4986078;28;20085;-67
2024/03/25 02:22:32;;;;;;;11.23;3.13;;;6.40;99.90;;;;;;5009393;28;20184;-67
2024/03/25 02:24:58;;;;;;;8.48;2.78;;;6.40;99.90;;;;;;5015088;28;20547;-68
2024/03/25 02:27:25;;;;;;;9.05;3.20;;;6.40;99.90;;;;;;4999709;28;20058;-67
2024/03/25 02:29:51;;;;;;;14.25;3.33;;;6.40;99.90;;;;;;5015961;28;20496;-68
2024/03/25 02:32:16;;;;;;;6.70;2.45;;;6.40;99.90;;;;;;5016478;28;20083;-67
2024/03/25 02:34:47;;;;;;;9.40;3.67;;;6.30;99.90;;;;;;5010772;28;20049;-68
2024/03/25 02:37:13;;;;;;;5.85;2.72;;;6.40;99.90;;;;;;5002121;28;20042;-67
2024/03/25 02:39:39;;;;;;;11.88;2.65;;;6.40;99.90;;;;;;5012129;28;20049;-67
2024/03/25 02:42:05;;;;;;;6.88;2.67;;;6.40;99.90;;;;;;5024626;28;20107;-68
2024/03/25 02:44:32;;;;;;;9.32;2.97;;;6.40;99.90;;;;;;5008451;28;20054;-67
2024/03/25 02:46:58;;;;;;;9.88;2.95;;;6.30;99.90;;;;;;5009317;28;20136;-68
2024/03/25 02:49:24;;;;;;;9.85;2.70;;;6.30;99.90;;;;;;4988671;28;20501;-68
2024/03/25 02:51:49;;;;;;;8.57;2.65;;;6.30;99.90;;;;;;5024877;28;20053;-68
2024/03/25 02:54:16;;;;;;;10.25;2.97;;;6.30;99.90;;;;;;5011839;28;20404;-68
2024/03/25 02:56:42;;;;;;;8.80;2.95;;;6.30;99.90;;;;;;5004684;28;20038;-68
2024/03/25 02:59:08;;;;;;;11.63;2.90;;;6.30;99.90;;;;;;5011210;28;20050;-68
2024/03/25 03:01:34;;;;;;;7.53;3.03;;;6.30;99.90;;;;;;4994739;28;20068;-68
2024/03/25 03:04:00;;;;;;;8.57;2.47;;;6.30;99.90;;;;;;5013072;28;20539;-69
2024/03/25 03:06:26;;;;;;;13.45;3.88;;;6.30;99.90;;;;;;5006211;28;20093;-68
2024/03/25 03:08:51;;;;;;;8.30;2.70;;;6.30;99.90;;;;;;5006909;28;20061;-67
2024/03/25 03:11:17;;;;;;;9.45;3.05;;;6.30;99.90;;;;;;5000559;28;20315;-67
2024/03/25 03:13:43;;;;;;;9.02;2.47;;;6.30;99.90;;;;;;5009054;28;20061;-67
2024/03/25 03:16:09;;;;;;;8.70;2.72;;;6.30;99.90;;;;;;5008819;28;20436;-68
2024/03/25 03:18:35;;;;;;;9.27;3.38;;;6.40;99.90;;;;;;5008345;28;20125;-68
2024/03/25 03:21:01;;;;;;;8.77;3.08;;;6.40;99.90;;;;;;5008914;28;20121;-69
2024/03/25 03:23:26;;;;;;;12.93;2.83;;;6.40;99.90;;;;;;4992165;28;20116;-68
2024/03/25 03:25:52;;;;;;;12.38;2.63;;;6.40;99.90;;;;;;5009101;28;20060;-67
2024/03/25 03:28:18;;;;;;;7.05;2.13;;;6.50;99.90;;;;;;5004728;28;20049;-68
2024/03/25 03:30:44;;;;;;;13.07;2.65;;;6.50;99.90;;;;;;5007895;28;20147;-68
2024/03/25 03:33:10;;;;;;;10.70;4.22;;;6.50;99.90;;;;;;5005866;28;20745;-68
2024/03/25 03:35:36;;;;;;;10.73;2.60;;;6.40;99.90;;;;;;5007538;28;20529;-68
2024/03/25 03:38:02;;;;;;;6.10;2.75;;;6.50;99.90;;;;;;5008101;28;20042;-68
2024/03/25 03:40:28;;;;;;;9.30;2.75;;;6.50;99.90;;;;;;5006419;28;20053;-68
2024/03/25 03:42:54;;;;;;;7.18;2.70;;;6.50;99.90;;;;;;4990728;28;20049;-68
2024/03/25 03:45:21;;;;;;;10.18;3.15;;;6.50;99.90;;;;;;5007970;28;20123;-68
2024/03/25 03:47:46;;;;;;;10.13;2.28;;;6.50;99.90;;;;;;5006500;28;21017;-68
2024/03/25 03:50:12;;;;;;;7.90;2.38;;;6.60;99.90;;;;;;5008282;28;20473;-69
2024/03/25 03:52:38;;;;;;;9.85;2.65;;;6.70;99.90;;;;;;5009642;28;20511;-68
2024/03/25 03:55:04;;;;;;;7.32;2.08;;;6.70;99.90;;;;;;5007038;28;20046;-67
2024/03/25 03:57:32;;;;;;;9.30;2.65;;;6.80;99.90;;;;;;5004190;28;20633;-68
2024/03/25 03:59:58;;;;;;;9.05;2.70;;;6.80;99.90;;;;;;5007164;28;20103;-69
2024/03/25 04:02:24;;;;;;;11.07;3.78;;;6.90;99.90;;;;;;4971204;28;20520;-68
2024/03/25 04:04:51;;;;;;;8.27;2.88;;;6.90;99.90;;;;;;4982799;28;20066;-70
2024/03/25 04:07:17;;;;;;;6.70;2.65;;;6.90;99.90;;;;;;5008215;28;20065;-68
2024/03/25 04:09:43;;;;;;;6.78;1.98;;;7.00;99.90;;;;;;5006621;28;20053;-68
2024/03/25 04:12:10;;;;;;;10.25;2.78;;;7.00;99.90;;;;;;5006800;28;20042;-69
2024/03/25 04:14:36;;;;;;;10.35;2.47;;;7.00;99.90;;;;;;5006925;28;20050;-69
2024/03/25 04:17:02;;;;;;;14.50;4.07;;;7.10;99.90;;;;;;4990069;28;20068;-68
2024/03/25 04:19:28;;;;;;;13.63;2.90;;;7.10;99.90;;;;;;5007519;28;20124;-68
2024/03/25 04:21:54;;;;;;;12.60;3.08;;;7.10;99.90;;;;;;5005025;28;20072;-69
2024/03/25 04:24:20;;;;;;;8.48;2.63;;;7.10;99.90;;;;;;5013142;28;20054;-68
2024/03/25 04:26:46;;;;;;;5.53;2.40;;;7.20;99.90;;;;;;5004970;28;20045;-69
2024/03/25 04:29:12;;;;;;;16.33;3.10;;;7.10;99.90;;;;;;4981490;28;20050;-67
2024/03/25 04:31:38;;;;;;;10.10;2.97;;;7.10;99.90;;;;;;5005027;28;20046;-69
2024/03/25 04:34:04;;;;;;;13.48;3.08;;;7.20;99.90;;;;;;5003809;28;20049;-67
2024/03/25 04:36:30;;;;;;;18.30;4.80;;;7.10;99.90;;;;;;5015461;28;20084;-67
2024/03/25 04:38:57;;;;;;;8.90;3.33;;;7.10;99.90;;;;;;5006838;28;20053;-67
2024/03/25 04:41:23;;;;;;;11.30;3.65;;;7.20;99.90;;;;;;5006871;28;20037;-68
2024/03/25 04:43:49;;;;;;;14.32;3.45;;;7.20;99.90;;;;;;4988524;28;20088;-67
2024/03/25 04:46:15;;;;;;;16.65;3.90;;;7.20;99.90;;;;;;5014901;28;20416;-68
2024/03/25 04:48:40;;;;;;;10.85;2.78;;;7.10;99.90;;;;;;5005356;28;20068;-68
2024/03/25 04:51:06;;;;;;;10.98;3.38;;;7.20;99.90;;;;;;5012570;28;20275;-68
2024/03/25 04:53:33;;;;;;;18.48;4.90;;;7.20;99.90;;;;;;5006001;28;20425;-67
2024/03/25 04:55:59;;;;;;;9.30;2.22;;;7.20;99.90;;;;;;5006333;28;20046;-68
2024/03/25 04:58:24;;;;;;;9.45;3.08;;;7.20;99.90;;;;;;5007219;28;20054;-68
2024/03/25 05:00:50;;;;;;;12.23;3.53;;;7.20;99.90;;;;;;5008688;28;20053;-68
2024/03/25 05:03:16;;;;;;;17.77;4.35;;;7.20;99.90;;;;;;5010237;28;20049;-68
2024/03/25 05:05:42;;;;;;;12.98;3.53;;;7.20;99.90;;;;;;5011295;28;20061;-67
2024/03/25 05:08:08;;;;;;;9.68;3.13;;;7.30;99.90;;;;;;5007895;28;20069;-67
2024/03/25 05:10:34;;;;;;;9.27;3.10;;;7.30;99.90;;;;;;5007559;28;20104;-67
2024/03/25 05:13:00;;;;;;;16.58;3.45;;;7.30;99.90;;;;;;5003706;28;20049;-67
2024/03/25 05:15:26;;;;;;;11.23;3.58;;;7.30;99.90;;;;;;5006586;28;20497;-67
2024/03/25 05:17:51;;;;;;;14.27;3.53;;;7.20;99.90;;;;;;5001599;28;20387;-67
2024/03/25 05:20:17;;;;;;;10.18;3.35;;;7.20;99.90;;;;;;5006039;28;20053;-66
2024/03/25 05:22:43;;;;;;;11.75;3.65;;;7.20;99.90;;;;;;5004939;28;20053;-67
2024/03/25 05:25:09;;;;;;;13.15;3.08;;;7.20;99.90;;;;;;5004883;28;20073;-67
2024/03/25 05:27:35;;;;;;;7.57;3.33;;;7.20;99.90;;;;;;4995858;28;20424;-67
2024/03/25 05:30:01;;;;;;;15.82;3.58;;;7.20;99.90;;;;;;5005263;28;20509;-67
2024/03/25 05:32:26;;;;;;;20.88;4.80;;;7.20;99.90;;;;;;5003573;28;20631;-69
2024/03/25 05:34:52;;;;;;;12.35;2.83;;;7.20;99.90;;;;;;5004623;28;20052;-68
2024/03/25 05:37:18;;;;;;;9.27;2.83;;;7.20;99.90;;;;;;5005837;28;20050;-70
2024/03/25 05:39:44;;;;;;;10.88;3.25;;;7.20;99.90;;;;;;5005252;28;20054;-68
2024/03/25 05:42:10;;;;;;;13.73;3.40;;;7.20;99.90;;;;;;5022965;28;20042;-68
2024/03/25 05:44:35;;;;;;;10.50;3.60;;;7.20;99.90;;;;;;5005548;28;20050;-68
2024/03/25 05:47:02;;;;;;;14.13;3.45;;;7.20;99.90;;;;;;5021760;28;20054;-70
2024/03/25 05:49:28;;;;;;;11.82;3.28;;;7.10;99.90;;;;;;5004231;28;20152;-68
2024/03/25 05:51:54;;;;;;;11.10;3.47;;;7.10;99.90;;;;;;5022556;28;20468;-68
2024/03/25 05:54:20;;;;;;;12.68;3.92;;;7.20;99.90;;;;;;5005207;28;20525;-68
2024/03/25 05:56:46;;;;;;;20.25;4.07;;;7.10;99.90;;;;;;5028812;28;20206;-68
2024/03/25 05:59:11;;;;;;;13.95;3.92;;;7.10;99.90;;;;;;5011467;28;20184;-69
2024/03/25 06:01:37;;;;;;;9.32;3.83;;;7.20;99.90;;;;;;5011757;28;20559;-68
2024/03/25 06:04:04;;;;;;;12.32;3.28;;;7.20;99.90;;;;;;5011443;28;20085;-70
2024/03/25 06:06:29;;;;;;;15.63;3.47;;;7.20;99.90;;;;;;5011952;28;20784;-68
2024/03/25 06:08:55;;;;;;;16.90;3.17;;;7.30;99.90;;;;;;5006406;28;20049;-68
2024/03/25 06:11:21;;;;;;;12.85;2.97;;;7.30;99.90;;;;;;5008436;28;20416;-68
2024/03/25 06:13:48;;;;;;;9.95;4.05;;;7.30;99.90;;;;;;5012587;28;20390;-68
2024/03/25 06:16:14;;;;;;;9.15;3.15;;;7.40;99.90;;;;;;5009530;28;20088;-68
2024/03/25 06:18:40;;;;;;;18.88;3.03;;;7.40;99.90;;;;;;5011489;28;20057;-68
2024/03/25 06:21:06;;;;;;;12.18;3.05;;;7.50;99.90;;;;;;5011653;28;20797;-67
2024/03/25 06:23:32;;;;;;;22.00;3.80;;;7.50;99.90;;;;;;5012486;28;20053;-69
2024/03/25 06:25:58;;;;;;;12.98;3.08;;;7.50;99.90;;;;;;5008960;28;20046;-68
2024/03/25 06:28:24;;;;;;;11.38;3.38;;;7.50;99.90;;;;;;5027119;28;20050;-68
2024/03/25 06:36:18;;;;;;;;;;;7.70;99.90;;;;;;5025866;28;20050;-69
2024/03/25 06:38:44;;;;;;;11.65;2.67;;;7.70;99.90;;;;;;5004838;28;19921;-67
2024/03/25 06:41:10;;;;;;;11.80;3.30;;;7.80;99.90;;;;;;5011297;28;20507;-68
2024/03/25 06:43:37;;;;;;;10.50;2.83;;;7.80;99.90;;;;;;5009457;28;20046;-66
2024/03/25 06:46:04;;;;;;;13.90;3.28;;;7.80;99.90;;;;;;5004365;28;20057;-67
2024/03/25 06:48:30;;;;;;;13.65;3.25;;;7.90;99.90;;;;;;5004117;28;20053;-67
2024/03/25 06:50:56;;;;;;;14.02;3.13;;;8.00;99.90;;;;;;5006383;28;20570;-68
2024/03/25 06:53:22;;;;;;;14.70;3.35;;;8.00;99.90;;;;;;5003659;28;20066;-67
2024/03/25 06:56:00;;;;;;;20.98;3.63;;;8.10;99.90;;;;;;5001869;28;20631;-66
2024/03/25 06:58:26;;;;;;;18.35;2.63;;;8.20;99.90;;;;;;5009150;28;20046;-68
2024/03/25 07:00:52;;;;;;;10.32;2.88;;;8.20;99.90;;;;;;5005716;28;20104;-67
2024/03/25 07:03:19;;;;;;;15.50;3.03;;;8.20;99.90;;;;;;5009234;28;20061;-68
2024/03/25 07:05:49;;;;;;;18.27;4.03;;;8.20;99.90;;;;;;5007934;28;20050;-68
2024/03/25 07:08:15;;;;;;;16.45;3.55;;;8.20;99.90;;;;;;5004711;28;20057;-68
2024/03/25 07:10:44;;;;;;;15.32;4.65;;;8.30;99.90;;;;;;5009491;28;20081;-68
2024/03/25 07:13:10;;;;;;;17.67;3.88;;;8.30;99.90;;;;;;5006105;28;20046;-63
2024/03/25 07:15:36;;;;;;;15.65;3.35;;;8.40;99.90;;;;;;5007489;28;20061;-69
2024/03/25 07:18:02;;;;;;;22.05;3.88;;;8.40;99.90;;;;;;5005086;28;20046;-68
2024/03/25 07:20:28;;;;;;;22.90;4.05;;;8.50;99.90;;;;;;5009168;28;20064;-67
2024/03/25 07:22:56;;;;;;;8.95;2.80;;;8.50;99.90;;;;;;5006092;28;20046;-69
2024/03/25 07:25:25;;;;;;;10.23;2.58;;;8.60;99.90;;;;;;5007448;28;20050;-68
2024/03/25 07:27:52;;;;;;;13.10;3.30;;;8.60;99.90;;;;;;5003831;28;20057;-68
2024/03/25 07:30:18;;;;;;;14.00;2.75;;;8.70;99.90;;;;;;5006604;28;20054;-68
2024/03/25 07:32:47;;;;;;;15.43;2.38;;;8.70;99.90;;;;;;4989463;28;20057;-67
2024/03/25 07:35:16;;;;;;;16.88;2.90;;;8.80;99.90;;;;;;4997477;28;20101;-68
2024/03/25 07:37:43;;;;;;;13.25;3.03;;;8.90;99.90;;;;;;5000289;28;20410;-66
2024/03/25 07:40:10;;;;;;;16.23;2.92;;;8.90;99.90;;;;;;5010298;28;20060;-67
2024/03/25 07:42:36;;;;;;;15.10;4.10;;;8.90;99.90;;;;;;5002293;28;20045;-67
2024/03/25 07:45:02;;;;;;;13.68;2.75;;;9.00;99.90;;;;;;5003570;28;20046;-66
2024/03/25 07:47:28;;;;;;;12.13;2.25;;;9.00;99.90;;;;;;4999029;28;20468;-67
2024/03/25 07:49:54;;;;;;;15.68;2.42;;;9.00;99.90;;;;;;5000510;28;20050;-67
2024/03/25 07:52:20;;;;;;;16.98;3.05;;;9.10;99.90;;;;;;5001488;28;20081;-66
2024/03/25 07:54:45;;;;;;;13.98;2.90;;;9.10;99.90;;;;;;5006655;28;20521;-68
2024/03/25 07:57:11;;;;;;;21.80;5.25;;;9.10;99.90;;;;;;5005650;28;20052;-68
2024/03/25 07:59:37;;;;;;;11.98;2.47;;;9.20;99.90;;;;;;4988117;28;20066;-67
2024/03/25 08:02:03;;;;;;;16.48;3.17;;;9.20;99.90;;;;;;5002392;28;20846;-68
2024/03/25 08:04:29;;;;;;;10.77;2.20;;;9.30;99.90;;;;;;5007064;28;20569;-68
2024/03/25 08:06:55;;;;;;;9.15;2.35;;;9.30;99.90;;;;;;4998356;28;20488;-68
2024/03/25 08:09:21;;;;;;;16.35;3.20;;;9.40;99.90;;;;;;5003524;28;20058;-68
2024/03/25 08:11:46;;;;;;;10.13;3.10;;;9.40;99.90;;;;;;5005657;28;20058;-68
2024/03/25 08:14:12;;;;;;;11.30;2.47;;;9.50;99.90;;;;;;5017643;28;20292;-68
2024/03/25 08:16:38;;;;;;;16.92;3.80;;;9.50;99.90;;;;;;5006429;28;20112;-68
2024/03/25 08:19:04;;;;;;;10.07;1.75;;;9.60;99.90;;;;;;5021726;28;20053;-69
2024/03/25 08:21:30;;;;;;;10.80;3.03;;;9.70;99.90;;;;;;5006736;28;20054;-67
2024/03/25 08:23:56;;;;;;;12.55;3.40;;;9.70;99.90;;;;;;5004933;28;20492;-68
2024/03/25 08:26:22;;;;;;;11.93;2.63;;;9.70;99.90;;;;;;5005574;28;20084;-68
2024/03/25 08:28:49;;;;;;;15.25;3.60;;;9.60;99.90;;;;;;5002589;28;20133;-69
2024/03/25 08:31:15;;;;;;;12.55;2.03;;;9.70;99.90;;;;;;5006552;28;20050;-70
2024/03/25 08:33:41;;;;;;;10.57;1.83;;;9.70;99.90;;;;;;4991624;28;20034;-69
2024/03/25 08:36:07;;;;;;;15.60;2.92;;;9.80;99.90;;;;;;5006753;28;20049;-67
2024/03/25 08:38:33;;;;;;;16.67;2.15;;;9.90;99.90;;;;;;5007241;28;20057;-69
2024/03/25 08:40:59;;;;;;;14.48;2.47;;;9.90;99.90;;;;;;4993605;28;20062;-70
2024/03/25 08:43:25;;;;;;;21.25;3.22;;;10.00;99.90;;;;;;5004027;28;20068;-70
2024/03/25 08:45:51;;;;;;;16.92;2.88;;;10.00;99.90;;;;;;5005742;28;20050;-70
2024/03/25 08:48:17;;;;;;;10.40;2.47;;;10.00;99.90;;;;;;4988498;28;20612;-69
2024/03/25 08:50:43;;;;;;;15.32;1.98;;;10.00;99.90;;;;;;5003247;28;20416;-67
2024/03/25 08:53:08;;;;;;;19.70;2.13;;;10.10;99.90;;;;;;5024165;28;20064;-68
2024/03/25 08:55:34;;;;;;;23.05;2.65;;;10.10;99.90;;;;;;5006898;28;20060;-68
2024/03/25 08:58:00;;;;;;;14.05;2.38;;;10.20;99.90;;;;;;5007257;28;20585;-68
2024/03/25 09:00:27;;;;;;;7.38;1.73;;;10.30;99.90;;;;;;4994081;28;20057;-69
2024/03/25 09:02:53;;;;;;;9.75;2.35;;;10.30;99.90;;;;;;5019725;28;20050;-69
2024/03/25 09:05:22;;;;;;;18.17;2.42;;;10.40;99.90;;;;;;5005749;28;20481;-69
2024/03/25 09:07:52;;;;;;;13.77;2.13;;;10.30;99.90;;;;;;4997319;28;20054;-69
2024/03/25 09:13:03;;;;;;;12.68;2.00;;;10.50;99.90;;;;;;5004112;28;20052;-68
2024/03/25 09:15:32;;;;;;;19.13;2.60;;;10.50;99.90;;;;;;5004313;28;20057;-68
2024/03/25 09:17:57;;;;;;;6.55;1.88;;;10.50;99.90;;;;;;4994758;28;20046;-67
2024/03/25 09:20:23;;;;;;;7.32;2.78;;;10.60;99.90;;;;;;5012714;28;20121;-68
2024/03/25 09:22:49;;;;;;;9.95;2.00;;;10.60;99.90;;;;;;5003271;28;20077;-69
2024/03/25 09:25:15;;;;;;;8.63;1.92;;;10.60;99.90;;;;;;5014348;28;20436;-68
2024/03/25 09:27:45;;;;;;;7.55;1.60;;;10.50;99.90;;;;;;5004368;28;20053;-68
2024/03/25 09:30:11;;;;;;;11.70;1.33;;;10.50;99.90;;;;;;4985045;28;20493;-69
2024/03/25 09:32:37;;;;;;;8.93;1.77;;;10.50;99.90;;;;;;5003009;28;20065;-69
2024/03/25 09:35:04;;;;;;;8.02;1.88;;;10.50;99.90;;;;;;4987631;28;20465;-70
2024/03/25 09:37:31;;;;;;;6.93;1.90;;;10.60;99.90;;;;;;5006318;28;20096;-68
2024/03/25 09:39:56;;;;;;;9.00;2.25;;;10.60;99.90;;;;;;5002384;28;20528;-67
2024/03/25 09:42:26;;;;;;;6.20;2.15;;;10.50;99.90;;;;;;4991632;28;20088;-67
2024/03/25 09:44:55;;;;;;;10.68;2.35;;;10.60;99.90;;;;;;5006012;28;20045;-68
2024/03/25 09:47:22;;;;;;;19.88;2.55;;;10.50;99.90;;;;;;5007701;28;20061;-68
2024/03/25 09:49:48;;;;;;;9.00;1.75;;;10.60;99.90;;;;;;5000016;28;20500;-69
2024/03/25 09:52:14;;;;;;;8.98;1.80;;;10.70;99.90;;;;;;5009381;28;20069;-68
2024/03/25 09:54:40;;;;;;;11.90;3.30;;;10.80;99.90;;;;;;5006189;28;20042;-69
2024/03/25 09:57:07;;;;;;;10.85;1.95;;;10.90;99.90;;;;;;5010229;28;20046;-66
2024/03/25 09:59:33;;;;;;;13.82;1.90;;;10.80;99.90;;;;;;5009129;28;20119;-67
2024/03/25 10:01:59;;;;;;;12.13;2.40;;;10.90;99.90;;;;;;5008016;28;20742;-69
2024/03/25 10:04:25;;;;;;;7.93;2.40;;;11.00;99.90;;;;;;5002955;28;20048;-68
2024/03/25 10:06:51;;;;;;;12.05;2.55;;;11.00;99.90;;;;;;4989786;28;20060;-70
2024/03/25 10:09:28;;;;;;;10.02;1.99;;;11.00;99.90;;;;;;4940513;28;10000705;-72
2024/03/25 10:11:54;;;;;;;12.23;2.88;;;11.10;99.90;;;;;;5000431;28;20253;-68
2024/03/25 10:14:20;;;;;;;9.65;2.35;;;11.10;99.90;;;;;;4985775;28;20053;-71
2024/03/25 10:16:49;;;;;;;8.65;2.13;;;11.00;99.90;;;;;;4986894;28;20056;-71
2024/03/25 10:19:15;;;;;;;9.88;2.47;;;11.00;99.90;;;;;;5001109;28;20062;-69
2024/03/25 10:21:41;;;;;;;18.25;2.92;;;11.00;99.90;;;;;;5001525;28;21049;-71
2024/03/25 10:24:08;;;;;;;11.02;2.33;;;10.90;99.90;;;;;;5001259;28;20053;-70
2024/03/25 10:26:40;;;;;;;11.00;2.08;;;10.90;99.90;;;;;;4992136;28;20061;-72
2024/03/25 10:29:06;;;;;;;15.27;2.65;;;11.00;99.90;;;;;;4998242;28;20058;-73
2024/03/25 10:31:33;;;;;;;10.90;1.98;;;11.00;99.90;;;;;;4998091;28;20050;-72
2024/03/25 10:33:59;;;;;;;8.25;1.90;;;10.90;99.90;;;;;;5000228;28;20410;-70
2024/03/25 10:36:25;;;;;;;8.45;2.00;;;10.80;99.90;;;;;;5002997;28;20045;-70
2024/03/25 10:38:57;;;;;;;11.23;2.28;;;10.80;99.90;;;;;;5007123;28;20734;-71
2024/03/25 10:41:25;;;;;;;7.60;1.80;;;10.80;99.90;;;;;;4988309;28;20050;-73
2024/03/25 10:43:53;;;;;;;6.00;2.03;;;10.90;99.90;;;;;;5002081;28;20055;-69
2024/03/25 10:46:20;;;;;;;6.32;1.90;;;11.00;99.90;;;;;;5006854;28;20120;-69
2024/03/25 10:48:55;;;;;;;15.90;2.53;;;11.00;99.90;;;;;;5002776;28;20062;-69
2024/03/25 10:51:21;;;;;;;14.75;4.05;;;11.00;99.90;;;;;;4977621;28;20540;-70
2024/03/25 10:53:50;;;;;;;12.75;2.65;;;10.90;99.90;;;;;;5008222;28;20046;-68
2024/03/25 10:56:16;;;;;;;14.15;3.30;;;11.00;99.90;;;;;;5011661;28;20064;-69
2024/03/25 10:58:41;;;;;;;8.35;2.20;;;11.10;99.90;;;;;;4993597;28;20093;-69
2024/03/25 11:01:07;;;;;;;13.95;2.05;;;11.10;99.90;;;;;;4999377;28;20092;-69
2024/03/25 11:03:33;;;;;;;13.25;2.45;;;11.10;99.90;;;;;;5001645;28;20448;-72
2024/03/25 11:05:59;;;;;;;9.93;2.28;;;11.00;99.90;;;;;;4988513;28;20066;-68
2024/03/25 11:08:31;;;;;;;20.27;2.38;;;11.00;99.90;;;;;;4982011;28;20053;-69
2024/03/25 11:10:57;;;;;;;15.07;3.85;;;11.00;99.90;;;;;;5001933;28;20481;-69
2024/03/25 11:13:23;;;;;;;13.05;2.22;;;11.00;99.90;;;;;;4997949;28;20053;-68
2024/03/25 11:15:49;;;;;;;17.10;2.50;;;11.00;99.90;;;;;;5002012;28;20068;-69
2024/03/25 11:18:16;;;;;;;8.13;2.55;;;11.10;99.90;;;;;;5005142;28;20164;-67
2024/03/25 11:20:42;;;;;;;12.15;2.42;;;11.10;99.90;;;;;;5019507;28;20104;-70
2024/03/25 11:23:14;;;;;;;8.38;2.47;;;11.10;99.90;;;;;;5000334;28;20045;-68
2024/03/25 11:25:41;;;;;;;12.07;2.85;;;11.20;99.90;;;;;;4986646;28;20111;-69
2024/03/25 11:28:08;;;;;;;11.68;2.60;;;11.20;99.90;;;;;;4984220;28;20390;-68
2024/03/25 11:30:34;;;;;;;16.55;2.95;;;11.30;99.90;;;;;;4988983;28;20061;-69
2024/03/25 11:33:01;;;;;;;14.65;2.53;;;11.40;99.90;;;;;;5001061;28;20053;-68
2024/03/25 11:35:27;;;;;;;14.73;2.40;;;11.50;99.90;;;;;;5009657;28;20456;-68
2024/03/25 11:37:54;;;;;;;10.13;2.67;;;11.50;99.90;;;;;;4997664;28;20076;-68
2024/03/25 11:40:20;;;;;;;8.98;1.95;;;11.50;99.90;;;;;;5011521;28;20054;-69
2024/03/25 11:42:46;;;;;;;12.75;2.65;;;11.30;99.90;;;;;;4985288;28;20112;-68
2024/03/25 11:45:21;;;;;;;9.05;2.20;;;11.30;99.90;;;;;;5007245;28;20064;-68
2024/03/25 11:47:48;;;;;;;11.32;2.00;;;11.30;99.90;;;;;;5008424;28;20069;-68
2024/03/25 11:50:16;;;;;;;12.40;2.85;;;11.40;99.90;;;;;;5003729;28;20062;-68
2024/03/25 11:52:41;;;;;;;14.15;2.35;;;11.50;99.90;;;;;;5008425;28;20060;-68
2024/03/25 11:55:08;;;;;;;9.18;2.17;;;11.60;99.90;;;;;;5007503;28;20050;-68
2024/03/25 11:57:35;;;;;;;9.60;2.97;;;11.70;99.90;;;;;;5016613;28;20054;-68
2024/03/25 12:00:05;;;;;;;16.77;3.63;;;11.70;99.90;;;;;;4990957;28;20100;-69
2024/03/25 12:02:31;;;;;;;14.38;3.80;;;11.80;99.90;;;;;;5000971;28;20060;-69
2024/03/25 12:04:57;;;;;;;10.68;2.53;;;11.90;99.90;;;;;;4997306;28;20058;-68
2024/03/25 12:07:23;;;;;;;14.32;2.20;;;12.10;99.90;;;;;;5006840;28;20064;-68
2024/03/25 12:12:34;;;;;;;11.73;2.17;;;12.40;99.90;;;;;;5008682;28;20065;-69
2024/03/25 12:15:02;;;;;;;14.38;2.25;;;12.40;99.90;;;;;;4985581;28;20050;-68
2024/03/25 12:17:28;;;;;;;9.25;2.42;;;12.40;99.90;;;;;;4992681;28;20058;-68
2024/03/25 12:20:08;;;;;;;12.05;1.98;;;12.40;99.90;;;;;;5005421;28;20053;-68
2024/03/25 12:22:34;;;;;;;10.52;2.42;;;12.50;99.90;;;;;;4988084;28;20104;-67
2024/03/25 12:25:01;;;;;;;10.15;1.88;;;12.50;99.90;;;;;;5005343;28;20053;-69
2024/03/25 12:27:30;;;;;;;8.68;2.78;;;12.60;99.90;;;;;;5021669;28;20050;-67
2024/03/25 12:30:02;;;;;;;10.45;2.65;;;12.60;99.90;;;;;;5002778;28;20042;-68
2024/03/25 12:32:31;;;;;;;19.60;3.08;;;12.50;99.90;;;;;;4978601;28;20391;-68
2024/03/25 12:34:58;;;;;;;8.27;2.40;;;12.40;99.90;;;;;;5002110;28;20050;-68
2024/03/25 12:37:26;;;;;;;14.10;2.20;;;12.30;99.90;;;;;;4986762;28;20042;-69
2024/03/25 12:39:52;;;;;;;11.75;1.83;;;12.40;99.90;;;;;;5004520;28;20053;-66
2024/03/25 12:42:18;;;;;;;10.43;1.92;;;12.30;99.90;;;;;;5003335;28;20501;-68
2024/03/25 12:44:44;;;;;;;12.75;2.20;;;12.20;99.90;;;;;;4985573;28;20409;-68
2024/03/25 12:47:10;;;;;;;11.10;2.17;;;12.20;99.90;;;;;;5006354;28;20567;-70
2024/03/25 12:49:36;;;;;;;9.85;2.75;;;12.20;99.90;;;;;;5004160;28;20123;-69
2024/03/25 12:52:05;;;;;;;12.27;2.88;;;12.20;99.90;;;;;;5022219;28;20130;-68
2024/03/25 12:54:31;;;;;;;10.43;2.67;;;12.30;99.90;;;;;;5005148;28;20169;-70